Airport View

Enter AWOS ICAO identifier for current METAR.

ex. KFNL

KFOD 080356Z AUTO 11004KT 10SM CLR 23/22 A2992 RMK AO2 SLP148 T02330222

8 Jul 2020 04:51

Frequency: 118.775

Phone: 515-955-5490

Other Area AWOS: KEBS - KCAV - KAXA - KBNW

TAF KFOD 072335Z 0800/0824 22005KT P6SM SKC FM080200 17005KT P6SM SKC FM081400 20010KT P6SM FEW070